Latest Weather Observations for Miles

IDQ60801

Issued at 12:02 pm EST Tuesday 24 October 2017 (issued every 30 minutes, with the page automatically refreshed every 10 minutes)

About weather observations | Map of weather stations | Latest weather observations for QLD | Other Formats
Station Details ID: 042112 Name: MILES CONSTANCE STREET Lat: -26.66 Lon: 150.18 Height: 304.8 m
Data from the previous 72 hours. | See also: Recent months at Miles
Date/Time
EST
Temp
°C
App
Temp
°C
Dew
Point
°C
Rel
Hum
%
Delta-T
°C
Wind Press
QNH
hPa
Press
MSL
hPa
Rain since
9am
mm
Dir  Spd
km/h
Gust
km/h
Spd
kts
Gust
kts
24/12:00pm 26.0 23.6 7.0 29 10.1 N 9 20 5 11 1019.8 1018.7 0.0
24/11:30am 26.1 23.6 6.6 28 10.3 E 9 19 5 10 1020.1 - 0.0
24/11:00am 26.1 23.1 7.8 31 9.9 NNE 13 20 7 11 1020.4 - 0.0
24/10:30am 24.4 22.4 8.5 36 8.6 NNE 9 17 5 9 1020.9 - 0.0
24/10:00am 23.6 22.2 10.8 44 7.2 NE 9 19 5 10 1021.1 - 0.0
24/09:30am 22.8 21.0 11.0 47 6.6 NNE 11 17 6 9 1021.3 - 0.0
24/09:00am 21.4 19.5 10.5 49 6.0 NE 11 20 6 11 1021.4 1020.3 0.2
24/08:30am 20.2 18.0 10.8 54 5.2 NNE 13 19 7 10 1021.4 - 0.2
24/08:00am 18.5 16.6 10.4 59 4.4 NNE 11 15 6 8 1021.5 - 0.2
24/07:30am 17.2 15.4 10.7 65 3.5 NNE 11 15 6 8 1021.4 - 0.2
24/07:00am 15.7 13.9 10.7 72 2.7 NNE 11 17 6 9 1021.1 - 0.2
24/06:30am 15.0 14.0 11.1 77 2.1 NE 7 11 4 6 1020.9 - 0.2
24/06:00am 13.3 12.5 10.9 85 1.3 NE 6 9 3 5 1020.6 1019.5 0.2
24/05:30am 10.9 9.8 10.1 95 0.4 N 6 7 3 4 1020.0 - 0.2
24/05:00am 10.8 10.9 10.0 95 0.4 CALM 0 0 0 0 1019.7 - 0.2
24/04:30am 10.9 10.7 10.3 96 0.3 N 2 6 1 3 1019.5 - 0.2
24/04:00am 11.2 10.3 10.6 96 0.3 N 6 7 3 4 1019.1 - 0.2
24/03:30am 11.3 10.7 10.5 95 0.4 N 4 7 2 4 1018.8 - 0.2
24/03:00am 11.4 11.6 10.6 95 0.4 CALM 0 0 0 0 1018.8 1017.7 0.2
24/02:30am 11.8 12.0 10.7 93 0.6 CALM 0 0 0 0 1018.8 - 0.2
24/02:00am 11.9 12.2 10.8 93 0.6 CALM 0 0 0 0 1018.9 - 0.2
24/01:30am 12.4 12.8 11.1 92 0.7 CALM 0 0 0 0 1019.1 - 0.2
24/01:00am 13.2 13.6 11.1 87 1.1 CALM 0 0 0 0 1019.2 - 0.2
24/12:30am 13.7 13.3 11.1 84 1.4 NNE 4 7 2 4 1019.3 - 0.2
24/12:00am 14.5 13.6 11.2 80 1.8 NE 7 13 4 7 1019.4 1018.3 0.2
 
Date/Time
EST
Temp
°C
App
Temp
°C
Dew
Point
°C
Rel
Hum
%
Delta-T
°C
Wind Press
QNH
hPa
Press
MSL
hPa
Rain since
9am
mm
Dir  Spd
km/h
Gust
km/h
Spd
kts
Gust
kts
23/11:30pm 14.8 14.7 10.9 77 2.1 NNE 2 9 1 5 1019.6 - 0.2
23/11:00pm 15.2 14.4 11.1 76 2.2 NNE 6 9 3 5 1019.4 - 0.2
23/10:30pm 15.8 14.4 11.0 73 2.6 ENE 9 15 5 8 1019.5 - 0.2
23/10:00pm 16.1 14.8 11.3 73 2.6 NNE 9 15 5 8 1019.2 - 0.2
23/09:30pm 16.5 15.2 11.4 72 2.8 NNE 9 15 5 8 1018.9 - 0.2
23/09:00pm 16.9 15.1 11.0 68 3.2 NE 11 20 6 11 1018.6 1017.5 0.2
23/08:30pm 17.3 16.1 11.5 68 3.2 E 9 15 5 8 1018.4 - 0.2
23/08:00pm 18.3 17.0 11.2 63 3.9 ENE 9 22 5 12 1018.3 - 0.2
23/07:30pm 19.4 16.6 11.3 59 4.5 E 17 26 9 14 1017.4 - 0.2
23/07:00pm 20.9 20.2 7.0 40 7.2 CALM 0 0 0 0 1016.2 - 0.2
23/06:30pm 22.6 20.1 4.9 31 8.9 S 7 11 4 6 1015.6 - 0.2
23/06:00pm 23.8 20.9 4.5 28 9.7 S 9 13 5 7 1015.2 1014.0 0.2
23/05:30pm 24.6 21.0 3.1 24 10.6 S 11 17 6 9 1014.6 - 0.2
23/05:00pm 25.7 22.9 3.2 23 11.2 SSW 7 11 4 6 1014.1 - 0.2
23/04:30pm 25.2 20.9 1.1 20 11.5 SW 13 20 7 11 1013.7 - 0.2
23/04:00pm 25.7 21.4 1.1 20 11.8 S 13 22 7 12 1013.4 - 0.2
23/03:30pm 26.2 22.6 2.8 22 11.6 SW 11 17 6 9 1013.2 - 0.2
23/03:00pm 26.1 22.9 0.8 19 12.1 W 7 17 4 9 1013.2 1012.1 0.2
23/02:30pm 26.5 22.2 0.9 19 12.3 W 13 26 7 14 1013.4 - 0.2
23/02:00pm 26.5 22.2 3.4 22 11.6 W 15 28 8 15 1013.6 - 0.2
23/01:30pm 26.2 21.9 3.2 22 11.5 W 15 26 8 14 1014.0 - 0.2
23/01:00pm 26.5 23.0 5.3 25 11.0 SW 13 20 7 11 1014.3 - 0.2
23/12:30pm 25.8 22.6 5.3 26 10.6 WSW 11 19 6 10 1014.5 - 0.2
23/12:00pm 25.2 23.3 7.7 32 9.4 SSW 7 15 4 8 1015.0 1013.8 0.2
23/11:30am 24.5 22.6 7.7 34 9.0 SE 7 11 4 6 1015.4 - 0.2
23/11:00am 24.8 23.4 9.7 38 8.4 SW 7 15 4 8 1015.7 - 0.2
23/10:30am 23.9 23.5 9.6 40 7.9 N 2 9 1 5 1015.9 - 0.2
23/10:00am 23.3 22.2 9.9 42 7.4 S 6 9 3 5 1016.2 - 0.2
23/09:30am 22.7 22.3 12.3 52 6.0 NE 6 9 3 5 1016.3 - 0.2
23/09:00am 20.9 21.2 12.3 58 4.9 WSW 2 9 1 5 1016.2 1015.1 0.6
23/08:30am 21.0 21.2 13.2 61 4.5 ENE 4 7 2 4 1016.1 - 0.6
23/08:00am 19.0 19.1 14.0 73 2.9 N 6 9 3 5 1015.8 - 0.6
23/07:30am 17.5 17.3 13.7 78 2.2 N 7 9 4 5 1015.6 - 0.6
23/07:00am 16.0 16.0 13.7 86 1.3 N 6 11 3 6 1015.4 - 0.6
23/06:30am 14.5 15.8 14.0 97 0.3 CALM 0 0 0 0 1015.1 - 0.6
23/06:00am 13.0 13.4 12.6 97 0.2 NNE 2 9 1 5 1014.9 1013.7 0.6
23/05:30am 12.3 12.9 11.9 97 0.2 CALM 0 0 0 0 1014.6 - 0.6
23/05:00am 12.7 13.4 12.3 97 0.2 CALM 0 0 0 0 1014.4 - 0.6
23/04:30am 12.9 13.7 12.5 97 0.2 CALM 0 0 0 0 1014.1 - 0.6
23/04:00am 13.5 14.4 13.0 97 0.3 CALM 0 4 0 2 1014.0 - 0.6
23/03:30am 13.8 14.9 13.4 97 0.2 CALM 0 6 0 3 1013.5 - 0.6
23/03:00am 13.8 14.8 13.3 97 0.3 CALM 0 0 0 0 1013.5 1012.4 0.6
23/02:30am 14.1 15.3 13.7 97 0.2 CALM 0 0 0 0 1013.5 - 0.6
23/02:00am 14.5 15.8 14.0 97 0.3 CALM 0 0 0 0 1013.6 - 0.6
23/01:30am 14.9 16.2 14.2 96 0.4 CALM 0 0 0 0 1014.1 - 0.6
23/01:00am 15.3 16.9 14.8 97 0.3 CALM 0 0 0 0 1014.2 - 0.6
23/12:30am 15.7 17.3 15.0 96 0.4 CALM 0 0 0 0 1014.3 - 0.4
23/12:00am 15.5 17.0 14.6 94 0.5 CALM 0 0 0 0 1014.4 1013.2 0.4
 
Date/Time
EST
Temp
°C
App
Temp
°C
Dew
Point
°C
Rel
Hum
%
Delta-T
°C
Wind Press
QNH
hPa
Press
MSL
hPa
Rain since
9am
mm
Dir  Spd
km/h
Gust
km/h
Spd
kts
Gust
kts
22/11:30pm 15.5 17.0 14.6 94 0.5 CALM 0 0 0 0 1014.6 - 0.4
22/11:00pm 16.2 17.8 14.8 91 0.8 CALM 0 0 0 0 1014.8 - 0.4
22/10:30pm 16.6 18.1 14.7 88 1.1 CALM 0 0 0 0 1014.8 - 0.4
22/10:00pm 17.0 18.6 15.0 88 1.2 CALM 0 0 0 0 1014.8 - 0.4
22/09:30pm 17.2 18.8 14.8 86 1.4 CALM 0 0 0 0 1014.7 - 0.4
22/09:00pm 17.3 19.0 15.1 87 1.3 CALM 0 0 0 0 1014.7 1013.5 0.4
22/08:30pm 17.5 18.8 15.1 86 1.4 WNW 2 7 1 4 1014.5 - 0.4
22/08:00pm 20.2 18.7 10.6 54 5.3 WSW 9 19 5 10 1014.3 - 0.0
22/07:30pm 19.2 20.7 14.6 74 2.7 CALM 0 0 0 0 1013.6 - 0.0
22/07:00pm 19.9 21.4 14.7 72 3.1 CALM 0 0 0 0 1013.2 - 0.0
22/06:30pm 21.4 21.8 11.2 52 5.7 CALM 0 6 0 3 1012.8 - 0.0
22/06:00pm 22.2 21.1 10.1 46 6.7 S 6 7 3 4 1012.4 1011.3 0.0
22/05:30pm 23.2 21.6 8.8 39 7.8 S 7 13 4 7 1012.1 - 0.0
22/05:00pm 23.6 21.4 7.9 36 8.4 SW 9 15 5 8 1011.9 - 0.0
22/04:30pm 24.2 22.1 8.1 35 8.7 SSW 9 15 5 8 1011.6 - 0.0
22/04:00pm 24.9 21.9 6.2 30 9.8 SSW 11 19 6 10 1011.5 - 0.0
22/03:30pm 24.4 21.7 7.3 33 9.1 SE 11 19 6 10 1011.5 - 0.0
22/03:00pm 24.0 21.1 6.7 33 9.1 S 11 20 6 11 1011.8 1010.6 0.0
22/02:30pm 23.9 21.4 8.4 37 8.4 S 11 17 6 9 1012.1 - 0.0
22/02:00pm 23.3 20.9 8.5 38 8.0 S 11 20 6 11 1012.4 - 0.0
22/01:30pm 23.4 21.2 9.4 41 7.7 S 11 20 6 11 1012.6 - 0.0
22/01:00pm 23.7 21.6 8.1 37 8.4 SSW 9 17 5 9 1012.9 - 0.0
22/12:30pm 23.2 21.4 9.6 42 7.5 SW 9 17 5 9 1013.4 - 0.0
22/12:00pm 22.9 21.1 9.6 42 7.3 SE 9 15 5 8 1013.6 1012.5 0.0
22/11:30am 22.1 20.5 10.1 46 6.6 SE 9 15 5 8 1014.3 - 0.0
22/11:00am 21.6 20.5 10.8 50 6.0 S 7 22 4 12 1014.6 - 0.0
22/10:30am 21.7 20.8 11.2 51 5.9 WSW 7 15 4 8 1014.9 - 0.0
22/10:00am 20.7 19.5 11.6 56 5.1 SSE 9 17 5 9 1015.3 - 0.0
22/09:30am 20.6 19.1 11.9 57 4.9 SE 11 15 6 8 1015.4 - 0.0
22/09:00am 19.7 19.5 13.5 67 3.6 SE 7 11 4 6 1015.4 1014.3 1.0
22/08:30am 18.0 18.2 13.1 73 2.8 E 4 7 2 4 1015.4 - 1.0
22/08:00am 17.3 17.3 13.6 79 2.1 NE 6 9 3 5 1015.3 - 1.0
22/07:30am 16.5 16.8 13.5 82 1.7 ESE 4 11 2 6 1015.2 - 1.0
22/07:00am 15.8 17.0 13.7 87 1.2 CALM 0 0 0 0 1015.0 - 1.0
22/06:30am 15.1 16.3 13.7 91 0.8 CALM 0 0 0 0 1014.9 - 1.0
22/06:00am 13.7 14.7 13.3 97 0.2 CALM 0 0 0 0 1014.8 1013.6 1.0
22/05:30am 13.5 14.5 13.1 97 0.2 CALM 0 0 0 0 1014.5 - 1.0
22/05:00am 13.3 14.2 12.9 97 0.2 CALM 0 0 0 0 1014.3 - 1.0
22/04:30am 12.9 13.7 12.7 99 0.1 CALM 0 0 0 0 1014.3 - 1.0
22/04:00am 12.5 13.2 12.1 97 0.2 CALM 0 0 0 0 1014.2 - 1.0
22/03:30am 12.5 13.2 12.1 97 0.2 CALM 0 0 0 0 1014.2 - 1.0
22/03:00am 12.5 13.2 12.1 97 0.2 CALM 0 0 0 0 1014.4 1013.2 1.0
22/02:30am 12.8 13.6 12.4 97 0.2 CALM 0 0 0 0 1014.3 - 1.0
22/02:00am 13.1 13.9 12.7 97 0.2 CALM 0 0 0 0 1014.5 - 1.0
22/01:30am 13.0 13.8 12.6 97 0.2 CALM 0 0 0 0 1014.9 - 1.0
22/01:00am 13.3 14.2 12.9 97 0.2 CALM 0 0 0 0 1015.3 - 1.0
22/12:30am 13.7 14.7 13.2 97 0.3 CALM 0 0 0 0 1015.6 - 1.0
22/12:00am 14.0 15.0 13.3 96 0.4 CALM 0 0 0 0 1015.9 1014.8 1.0
 
Date/Time
EST
Temp
°C
App
Temp
°C
Dew
Point
°C
Rel
Hum
%
Delta-T
°C
Wind Press
QNH
hPa
Press
MSL
hPa
Rain since
9am
mm
Dir  Spd
km/h
Gust
km/h
Spd
kts
Gust
kts
21/11:30pm 14.5 15.6 13.6 94 0.5 CALM 0 0 0 0 1016.1 - 1.0
21/11:00pm 14.8 15.2 13.7 93 0.6 SSW 4 7 2 4 1016.2 - 1.0
21/10:30pm 15.5 16.0 13.9 90 0.9 SSW 4 7 2 4 1016.3 - 1.0
21/10:00pm 15.9 16.7 13.8 87 1.2 SSE 2 7 1 4 1016.0 - 1.0
21/09:30pm 16.2 16.0 13.6 84 1.5 ENE 7 11 4 6 1015.6 - 1.0
21/09:00pm 16.7 16.4 13.4 81 1.9 SSE 7 11 4 6 1016.2 1015.1 1.0
21/08:30pm 17.3 16.6 13.3 77 2.3 S 9 17 5 9 1016.2 - 1.0
21/08:00pm 17.9 17.3 13.4 75 2.6 SSE 9 15 5 8 1015.9 - 1.0
21/07:30pm 18.0 17.8 13.5 75 2.6 ESE 7 11 4 6 1015.6 - 1.0
21/07:00pm 18.1 17.6 13.8 76 2.5 ESE 9 13 5 7 1015.6 - 1.0
21/06:30pm 18.1 17.8 14.3 78 2.2 E 9 15 5 8 1015.1 - 1.0
21/06:00pm 18.3 17.7 14.7 79 2.1 ENE 11 17 6 9 1014.3 1013.1 1.0
21/05:30pm 18.8 18.1 14.4 75 2.6 ESE 11 17 6 9 1014.3 - 1.0
21/05:00pm 19.3 18.3 14.7 74 2.7 SE 13 20 7 11 1014.2 - 1.0
21/04:30pm 18.7 16.1 15.0 79 2.2 ESE 22 33 12 18 1013.8 - 1.0
21/04:00pm 22.7 23.6 16.5 68 3.8 S 7 13 4 7 1013.2 - 0.8
21/03:30pm 21.4 21.0 16.3 72 3.1 WSW 13 20 7 11 1013.4 - 0.8
21/03:00pm 21.7 21.3 16.3 71 3.3 S 13 20 7 11 1013.6 1012.5 0.8
21/02:30pm 22.1 22.7 15.7 67 3.9 SSW 7 11 4 6 1013.7 - 0.8
21/02:00pm 21.7 22.7 16.3 71 3.3 WSW 6 9 3 5 1014.2 - 0.8
21/01:30pm 21.5 23.1 17.0 75 2.8 WSW 4 11 2 6 1014.7 - 0.8
21/01:00pm 20.6 21.0 16.3 76 2.6 WSW 9 13 5 7 1015.1 - 0.8
21/12:30pm 20.1 20.9 17.2 83 1.8 WSW 9 15 5 8 1015.7 - 0.8

Other Formats:

Comma delimited format used in spreadsheet applications
http://www.bom.gov.au/fwo/IDQ60801/IDQ60801.95529.axf

JavaScript Object Notation format (JSON) in row-major order
http://www.bom.gov.au/fwo/IDQ60801/IDQ60801.95529.json